Terminal Aerodrome Forecast
Issued by NWS

Home | Current Version | Previous Version | Text Only | Print | Product List | Glossary On
Versions: 1 2 3 4 5 6 7 8 9 10 11 12 13 14 15 16 17 18 19
000
FTUS46 KLOX 281100
TAFLGB
TAF
KLGB 281127Z 2812/0112 28010KT P6SM SCT025 BKN035
     FM281900 27014KT P6SM VCSH BKN025 OVC040
     FM282200 27016KT P6SM -SHRA BKN025 OVC035
     FM010300 28010KT 5SM -SHRA VCTS SCT015CB OVC025
     FM010800 VRB03KT 5SM -SHRA VCTS SCT015CB OVC025=

USA.gov is the U.S. government's official web portal to all federal, state and local government web resources and services.